Rosebud, Texas
Current Conditions -  °F | °C
As of 3:15 PM on Monday 22 Dec 2014 (Local Time) from KT35 Reporting Station
Clear Clear  
Wind Chill: 74°   Ceiling: Unl
Heat Index: 74°   Visibility: 10mi
Dew Point: 47°   Wind: 7mph
Humidity: 38%   Direction: 250°WSW
Pressure: 29.59"   Gusts: 16mph
Location:  31.07°N, 96.98°W
Report Text: KT35 222115Z AUTO 25006G14KT 10SM CLR 23/08 A2959 RMK AO2 T02330082
Loading
Personal Weather Stations






























Interactive Weather Map New forecast layout! Learn more

10-Day Weather Forecast

Advertisements
Track Severe Weather on mobile